Milwaukee, WI (53201)

9:23 PM CST on December 24, 2014 (GMT -0600)
East Side | Change Station
CLOSE
Current Station
Personal Weather Station
Location: Milwaukee, WI
Elevation: 646 ft
Nearby Weather Stations

Elev 646 ft 43.06 °N, 87.89 °W | Updated 26 seconds ago

Overcast
Overcast
36.0 °F
Feels Like 36 °F
N
0.0
Wind Variable Wind from North
Gusts 0.0 mph

Today
High -- | Low -- °F
--% Chance of Precip.
Yesterday
High -- | Low -- °F
Precip. -- in
7:21 AM 4:21 PM
Waxing Crescent, 13% visible
Pressure 29.54 in
Visibility 10.0 miles
Clouds Overcast 1100 ft
Windchill 36 °F
Dew Point 32 °F
Humidity 84%
Rainfall 0.00 in
Snow Depth Not available.
UV 0 out of 12
Pollen .10 out of 12
Air Quality Not available.
Flu Activity Not available.
METAR KMKE 250252Z COR 29011KT 10SM OVC011 02/M01 A2952 RMK AO2 SLP002 RAE02B24E51PLB38E50 P0000 60000 T00221006 51009

More Conditions Fewer Conditions

Pressure 29.54 in
Visibility 10.0 miles
Clouds Overcast 1100 ft
Windchill 36 °F
Dew Point 32 °F
Humidity 84%
Rainfall 0.00 in
Snow Depth Not available.
UV 0 out of 12
Pollen .10 out of 12
Air Quality Not available.
Flu Activity Not available.
METAR KMKE 250252Z COR 29011KT 10SM OVC011 02/M01 A2952 RMK AO2 SLP002 RAE02B24E51PLB38E50 P0000 60000 T00221006 51009

More Conditions Fewer Conditions

10-Day Weather Forecast

Almanac

Astronomy

Dec. 24, 2014 Rise Set
Actual Time
Civil Twilight
Nautical Twilight
Astronomical Twilight
Moon
Length of Visible Light
Length of Day
Tomorrow will be .
, % of the Moon is Illuminated

Today's Extremes

State Highs State Lows

Community

WunderPhotos

Upload Photos

1,780,221 photos uploaded!

WunderBlogs® & News

Nearby

Air Quality

  Air Quality AQ Index Pollutant
Not available.

Snow Depth

Station Depth Elevation

Earthquake Activity

City Distance Mag. Time & Date
Minimum magnitude displayed is 2.5.

Coastal Water Temperatures

Place Temperature

Nearby Weather Stations